West Lincoln, Mississippi
Current Conditions -  °F | °C
As of 8:55 AM on Sunday 23 Nov 2014 (Local Time) from K1R7 Reporting Station
Light Rain Light Rain  
Wind Chill: 63°   Ceiling: 400
Heat Index: 63°   Visibility: 2mi
Dew Point: 63°   Wind: 6mph
Humidity: 100%   Direction: 120°ESE
Pressure: 29.65"   Gusts: NA
Location:  31.5898°N, 90.4722°W
Report Text: K1R7 231455Z AUTO 12005KT 2SM -RA BKN004 17/17 A2965 RMK AO2 P0006
Loading
Personal Weather Stations






























Interactive Weather Map New forecast layout! Learn more

10-Day Weather Forecast

Advertisements
Track Severe Weather on mobile